Time,TemperatureF,DewpointF,PressureIn,WindDirection,WindDirectionDegrees,WindSpeedMPH,WindSpeedGustMPH,Humidity,HourlyPrecipIn,Conditions,Clouds,dailyrainin,SoftwareType,DateUTC
2013-07-23 00:01:00,54.4,53.0,29.83,SSW,194,0.0,0.0,95,0.00,,---,0.00,VWS V14.01,2013-07-23 07:01:00,
2013-07-23 00:06:00,54.1,52.7,29.83,SSW,195,0.0,0.0,95,0.00,,---,0.00,VWS V14.01,2013-07-23 07:06:00,
2013-07-23 00:11:00,53.9,52.5,29.83,SSW,194,0.0,0.0,95,0.00,,---,0.00,VWS V14.01,2013-07-23 07:11:00,
2013-07-23 00:16:00,53.7,52.3,29.83,SSW,194,0.0,0.0,95,0.00,,---,0.00,VWS V14.01,2013-07-23 07:16:00,
2013-07-23 00:21:00,53.6,52.2,29.83,SSW,194,0.0,0.0,95,0.00,,---,0.00,VWS V14.01,2013-07-23 07:21:00,
2013-07-23 00:26:00,53.6,52.2,29.83,SSW,194,0.0,0.0,95,0.00,,---,0.00,VWS V14.01,2013-07-23 07:26:00,
2013-07-23 00:31:00,53.6,52.2,29.83,SSW,195,0.0,0.0,95,0.00,,---,0.00,VWS V14.01,2013-07-23 07:31:00,
2013-07-23 00:36:00,53.6,52.5,29.83,SSW,194,0.0,0.0,96,0.00,,---,0.00,VWS V14.01,2013-07-23 07:36:00,
2013-07-23 00:41:00,53.5,52.4,29.83,SSW,194,0.0,0.0,96,0.00,,---,0.00,VWS V14.01,2013-07-23 07:41:00,
2013-07-23 00:47:00,53.4,52.0,29.83,SSW,194,0.0,0.0,95,0.00,,---,0.00,VWS V14.01,2013-07-23 07:47:00,
2013-07-23 00:52:00,53.3,51.9,29.83,SSW,194,0.0,0.0,95,0.00,,---,0.00,VWS V14.01,2013-07-23 07:52:00,
2013-07-23 00:57:00,53.1,51.7,29.83,SSW,194,0.0,0.0,95,0.00,,---,0.00,VWS V14.01,2013-07-23 07:57:00,
2013-07-23 01:02:00,53.1,51.7,29.83,SSW,194,0.0,0.0,95,0.00,,---,0.00,VWS V14.01,2013-07-23 08:02:00,
2013-07-23 01:07:00,53.1,52.0,29.83,SSW,194,0.0,0.0,96,0.00,,---,0.00,VWS V14.01,2013-07-23 08:07:00,
2013-07-23 01:12:00,53.0,51.9,29.83,SSW,195,0.0,0.0,96,0.00,,---,0.00,VWS V14.01,2013-07-23 08:12:00,
2013-07-23 01:17:00,52.8,51.4,29.82,SSW,194,0.0,0.0,95,0.00,,---,0.00,VWS V14.01,2013-07-23 08:17:00,
2013-07-23 01:22:00,52.7,51.3,29.82,SSW,194,0.0,0.0,95,0.00,,---,0.00,VWS V14.01,2013-07-23 08:22:00,
2013-07-23 01:27:00,52.5,51.1,29.82,SSW,195,0.0,0.0,95,0.00,,---,0.00,VWS V14.01,2013-07-23 08:27:00,
2013-07-23 01:32:00,52.3,50.9,29.83,SSW,194,0.0,0.0,95,0.00,,---,0.00,VWS V14.01,2013-07-23 08:32:00,
2013-07-23 01:37:00,52.1,50.7,29.83,SSW,194,0.0,0.0,95,0.00,,---,0.00,VWS V14.01,2013-07-23 08:37:00,
2013-07-23 01:42:00,51.9,50.5,29.83,SSW,195,0.0,0.0,95,0.00,,---,0.00,VWS V14.01,2013-07-23 08:42:00,
2013-07-23 01:47:00,51.8,50.7,29.83,SSW,194,0.0,0.0,96,0.00,,---,0.00,VWS V14.01,2013-07-23 08:47:00,
2013-07-23 01:52:00,51.7,50.6,29.83,SSW,194,0.0,0.0,96,0.00,,---,0.00,VWS V14.01,2013-07-23 08:52:00,
2013-07-23 01:57:00,51.9,50.8,29.83,SSW,194,0.0,0.0,96,0.00,,---,0.00,VWS V14.01,2013-07-23 08:57:00,
2013-07-23 02:02:00,51.8,50.7,29.83,SSW,194,0.0,0.0,96,0.00,,---,0.00,VWS V14.01,2013-07-23 09:02:00,
2013-07-23 02:07:00,51.7,50.6,29.83,SSW,194,0.0,0.0,96,0.00,,---,0.00,VWS V14.01,2013-07-23 09:07:00,
2013-07-23 02:12:00,51.6,50.5,29.83,SSW,195,0.0,0.0,96,0.00,,---,0.00,VWS V14.01,2013-07-23 09:12:00,
2013-07-23 02:17:00,51.6,50.5,29.83,SSW,194,0.0,0.0,96,0.00,,---,0.00,VWS V14.01,2013-07-23 09:17:00,
2013-07-23 02:22:00,51.5,50.4,29.84,SSW,194,0.0,0.0,96,0.00,,---,0.00,VWS V14.01,2013-07-23 09:22:00,
2013-07-23 02:27:00,51.4,50.3,29.84,SSW,195,0.0,0.0,96,0.00,,---,0.00,VWS V14.01,2013-07-23 09:27:00,
2013-07-23 02:32:00,51.5,50.4,29.83,SSW,195,0.0,0.0,96,0.00,,---,0.00,VWS V14.01,2013-07-23 09:32:00,
2013-07-23 02:37:00,51.6,50.5,29.83,SSW,194,0.0,0.0,96,0.00,,---,0.00,VWS V14.01,2013-07-23 09:37:00,
2013-07-23 02:42:00,51.8,50.7,29.83,SSW,194,0.0,0.0,96,0.00,,---,0.00,VWS V14.01,2013-07-23 09:42:00,
2013-07-23 02:47:00,51.9,50.8,29.83,SSW,195,0.0,0.0,96,0.00,,---,0.00,VWS V14.01,2013-07-23 09:47:00,
2013-07-23 02:52:00,51.8,50.7,29.83,SSW,194,0.0,0.0,96,0.00,,---,0.00,VWS V14.01,2013-07-23 09:52:00,
2013-07-23 02:57:00,51.8,50.7,29.84,SSW,194,0.0,0.0,96,0.00,,---,0.00,VWS V14.01,2013-07-23 09:57:00,
2013-07-23 03:02:00,51.6,50.5,29.84,SSW,195,0.0,0.0,96,0.00,,---,0.00,VWS V14.01,2013-07-23 10:02:00,
2013-07-23 03:08:00,51.4,50.3,29.84,SSW,194,0.0,0.0,96,0.00,,---,0.00,VWS V14.01,2013-07-23 10:08:00,
2013-07-23 03:13:00,51.2,50.1,29.84,SSW,194,0.0,0.0,96,0.00,,---,0.00,VWS V14.01,2013-07-23 10:13:00,
2013-07-23 03:18:00,51.1,50.0,29.84,SSW,195,0.0,0.0,96,0.00,,---,0.00,VWS V14.01,2013-07-23 10:18:00,
2013-07-23 03:23:00,51.0,49.9,29.84,SSW,195,0.0,0.0,96,0.00,,---,0.00,VWS V14.01,2013-07-23 10:23:00,
2013-07-23 03:28:00,50.9,49.8,29.84,SSW,194,0.0,0.0,96,0.00,,---,0.00,VWS V14.01,2013-07-23 10:28:00,
2013-07-23 03:33:00,51.0,49.9,29.84,SSW,194,0.0,0.0,96,0.00,,---,0.00,VWS V14.01,2013-07-23 10:33:00,
2013-07-23 03:38:00,51.0,49.9,29.85,SSW,194,0.0,0.0,96,0.00,,---,0.00,VWS V14.01,2013-07-23 10:38:00,
2013-07-23 03:43:00,51.1,50.0,29.85,SSW,194,0.0,0.0,96,0.00,,---,0.00,VWS V14.01,2013-07-23 10:43:00,
2013-07-23 03:48:00,51.0,49.9,29.85,SSW,195,0.0,0.0,96,0.00,,---,0.00,VWS V14.01,2013-07-23 10:48:00,
2013-07-23 03:53:00,51.0,49.9,29.85,SSW,195,0.0,0.0,96,0.00,,---,0.00,VWS V14.01,2013-07-23 10:53:00,
2013-07-23 03:58:00,50.8,49.7,29.85,SSW,194,0.0,0.0,96,0.00,,---,0.00,VWS V14.01,2013-07-23 10:58:00,
2013-07-23 04:03:00,50.6,49.5,29.85,SSW,194,0.0,0.0,96,0.00,,---,0.00,VWS V14.01,2013-07-23 11:03:00,
2013-07-23 04:08:00,50.5,49.4,29.85,SSW,194,0.0,0.0,96,0.00,,---,0.00,VWS V14.01,2013-07-23 11:08:00,
2013-07-23 04:13:00,50.3,49.2,29.85,SSW,194,0.0,0.0,96,0.00,,---,0.00,VWS V14.01,2013-07-23 11:13:00,
2013-07-23 04:18:00,50.4,49.3,29.85,SSW,195,0.0,0.0,96,0.00,,---,0.00,VWS V14.01,2013-07-23 11:18:00,
2013-07-23 04:23:00,50.4,49.3,29.85,SSW,194,0.0,0.0,96,0.00,,---,0.00,VWS V14.01,2013-07-23 11:23:00,
2013-07-23 04:28:00,50.5,49.4,29.85,SSW,195,0.0,0.0,96,0.00,,---,0.00,VWS V14.01,2013-07-23 11:28:00,
2013-07-23 04:33:00,50.7,49.6,29.85,SSW,195,0.0,0.0,96,0.00,,---,0.00,VWS V14.01,2013-07-23 11:33:00,
2013-07-23 04:38:00,50.7,49.6,29.85,SSW,194,0.0,0.0,96,0.00,,---,0.00,VWS V14.01,2013-07-23 11:38:00,
2013-07-23 04:43:00,50.6,49.5,29.85,SSW,195,0.0,0.0,96,0.00,,---,0.00,VWS V14.01,2013-07-23 11:43:00,
2013-07-23 04:48:00,50.4,49.3,29.85,SSW,194,0.0,0.0,96,0.00,,---,0.00,VWS V14.01,2013-07-23 11:48:00,
2013-07-23 04:53:00,50.2,49.1,29.85,SSW,195,0.0,0.0,96,0.00,,---,0.00,VWS V14.01,2013-07-23 11:53:00,
2013-07-23 04:58:00,50.0,48.9,29.86,SSW,194,0.0,0.0,96,0.00,,---,0.00,VWS V14.01,2013-07-23 11:58:00,
2013-07-23 05:03:00,50.0,48.9,29.85,SSW,194,0.0,0.0,96,0.00,,---,0.00,VWS V14.01,2013-07-23 12:03:00,
2013-07-23 05:09:00,49.9,48.8,29.86,SSW,194,0.0,0.0,96,0.00,,---,0.00,VWS V14.01,2013-07-23 12:09:00,
2013-07-23 05:14:00,49.9,48.8,29.86,SSW,195,0.0,0.0,96,0.01,,---,0.01,VWS V14.01,2013-07-23 12:14:00,
2013-07-23 05:19:00,50.2,49.1,29.86,SSW,194,0.0,0.0,96,0.01,,---,0.01,VWS V14.01,2013-07-23 12:19:00,
2013-07-23 05:24:00,50.6,49.5,29.86,SSW,194,0.0,0.0,96,0.01,,---,0.01,VWS V14.01,2013-07-23 12:24:00,
2013-07-23 05:29:00,50.6,49.5,29.86,SSW,194,0.0,0.0,96,0.01,,---,0.01,VWS V14.01,2013-07-23 12:29:00,
2013-07-23 05:34:00,50.7,49.6,29.86,SSW,195,0.0,0.0,96,0.01,,---,0.01,VWS V14.01,2013-07-23 12:34:00,
2013-07-23 05:39:00,50.6,49.5,29.86,SSW,194,0.0,0.0,96,0.01,,---,0.01,VWS V14.01,2013-07-23 12:39:00,
2013-07-23 05:44:00,50.5,49.4,29.86,SSW,194,0.0,0.0,96,0.01,,---,0.01,VWS V14.01,2013-07-23 12:44:00,
2013-07-23 05:49:00,50.4,49.3,29.86,SSW,195,0.0,0.0,96,0.01,,---,0.01,VWS V14.01,2013-07-23 12:49:00,
2013-07-23 05:54:00,50.3,49.2,29.86,SSW,195,0.0,0.0,96,0.01,,---,0.01,VWS V14.01,2013-07-23 12:54:00,
2013-07-23 05:59:00,50.1,49.0,29.86,SSW,194,0.0,0.0,96,0.01,,---,0.01,VWS V14.01,2013-07-23 12:59:00,
2013-07-23 06:04:00,50.0,48.9,29.87,SSW,194,0.0,0.0,96,0.01,,---,0.01,VWS V14.01,2013-07-23 13:04:00,
2013-07-23 06:09:00,49.9,48.8,29.87,SSW,194,0.0,0.0,96,0.01,,---,0.01,VWS V14.01,2013-07-23 13:09:00,
2013-07-23 06:13:00,49.9,48.8,29.87,SSW,195,0.0,0.0,96,0.01,,---,0.01,VWS V14.01,2013-07-23 13:13:00,
2013-07-23 06:18:00,49.9,48.8,29.87,SSW,194,0.0,0.0,96,0.01,,---,0.01,VWS V14.01,2013-07-23 13:18:00,
2013-07-23 06:23:00,49.9,48.8,29.87,SSW,194,0.0,0.0,96,0.01,,---,0.01,VWS V14.01,2013-07-23 13:23:00,
2013-07-23 06:28:00,49.9,48.8,29.87,SSW,195,0.0,0.0,96,0.01,,---,0.01,VWS V14.01,2013-07-23 13:28:00,
2013-07-23 06:33:00,50.0,48.9,29.88,SSW,195,0.0,0.0,96,0.00,,---,0.01,VWS V14.01,2013-07-23 13:33:00,
2013-07-23 06:38:00,50.2,49.1,29.87,SSW,195,0.0,0.0,96,0.00,,---,0.01,VWS V14.01,2013-07-23 13:38:00,
2013-07-23 06:43:00,50.5,49.4,29.87,SSW,195,0.0,0.0,96,0.00,,---,0.01,VWS V14.01,2013-07-23 13:43:00,
2013-07-23 06:48:00,50.7,49.6,29.88,SSW,194,0.0,0.0,96,0.00,,---,0.01,VWS V14.01,2013-07-23 13:48:00,
2013-07-23 06:53:00,51.1,50.0,29.88,SSW,194,0.0,0.0,96,0.00,,---,0.01,VWS V14.01,2013-07-23 13:53:00,
2013-07-23 06:58:00,51.5,50.4,29.87,SSW,194,0.0,0.0,96,0.00,,---,0.01,VWS V14.01,2013-07-23 13:58:00,
2013-07-23 07:03:00,51.8,50.7,29.87,SSW,195,0.0,0.0,96,0.00,,---,0.01,VWS V14.01,2013-07-23 14:03:00,
2013-07-23 07:08:00,52.4,51.6,29.87,SSW,207,0.0,0.0,97,0.00,,---,0.01,VWS V14.01,2013-07-23 14:08:00,
2013-07-23 07:13:00,52.8,52.0,29.87,SSW,207,0.0,0.0,97,0.00,,---,0.01,VWS V14.01,2013-07-23 14:13:00,
2013-07-23 07:18:00,53.3,52.5,29.87,SSW,207,0.0,0.0,97,0.00,,---,0.01,VWS V14.01,2013-07-23 14:18:00,
2013-07-23 07:23:00,53.8,53.0,29.87,SSW,207,0.0,0.0,97,0.00,,---,0.01,VWS V14.01,2013-07-23 14:23:00,
2013-07-23 07:28:00,54.4,53.6,29.87,SSW,207,0.0,0.0,97,0.00,,---,0.01,VWS V14.01,2013-07-23 14:28:00,
2013-07-23 07:33:00,55.0,54.2,29.87,SSW,207,0.0,0.0,97,0.00,,---,0.01,VWS V14.01,2013-07-23 14:33:00,
2013-07-23 07:39:00,55.7,54.9,29.87,SSW,207,0.0,0.0,97,0.00,,---,0.01,VWS V14.01,2013-07-23 14:39:00,
2013-07-23 07:44:00,56.5,55.7,29.87,SSW,207,0.0,0.0,97,0.00,,---,0.01,VWS V14.01,2013-07-23 14:44:00,
2013-07-23 07:49:00,57.2,56.4,29.87,SSW,207,0.0,0.0,97,0.00,,---,0.01,VWS V14.01,2013-07-23 14:49:00,
2013-07-23 07:54:00,57.9,57.1,29.86,SSW,206,0.0,0.0,97,0.00,,---,0.01,VWS V14.01,2013-07-23 14:54:00,
2013-07-23 07:59:00,58.2,57.4,29.87,SSW,207,0.0,0.0,97,0.00,,---,0.01,VWS V14.01,2013-07-23 14:59:00,
2013-07-23 08:04:00,58.5,57.7,29.87,SSW,207,0.0,0.0,97,0.00,,---,0.01,VWS V14.01,2013-07-23 15:04:00,
2013-07-23 08:09:00,58.7,57.8,29.87,West,260,1.0,1.0,97,0.00,,---,0.01,VWS V14.01,2013-07-23 15:09:00,
2013-07-23 08:14:00,58.8,58.0,29.87,West,267,0.0,0.0,97,0.00,,---,0.01,VWS V14.01,2013-07-23 15:14:00,
2013-07-23 08:19:00,59.7,58.8,29.87,West,268,0.0,0.0,97,0.00,,---,0.01,VWS V14.01,2013-07-23 15:19:00,
2013-07-23 08:24:00,60.9,60.0,29.87,West,269,0.0,0.0,97,0.00,,---,0.01,VWS V14.01,2013-07-23 15:24:00,
2013-07-23 08:29:00,62.0,61.1,29.87,West,263,0.0,0.0,97,0.00,,---,0.01,VWS V14.01,2013-07-23 15:29:00,
2013-07-23 08:34:00,62.3,61.4,29.87,West,263,0.0,0.0,97,0.00,,---,0.01,VWS V14.01,2013-07-23 15:34:00,
2013-07-23 08:39:00,62.6,61.5,29.87,West,263,0.0,0.0,96,0.00,,---,0.01,VWS V14.01,2013-07-23 15:39:00,
2013-07-23 08:44:00,63.3,60.0,29.87,North,359,2.0,2.0,89,0.00,,---,0.01,VWS V14.01,2013-07-23 15:44:00,
2013-07-23 08:49:00,63.8,58.9,29.87,NW,320,2.0,2.0,84,0.00,,---,0.01,VWS V14.01,2013-07-23 15:49:00,
2013-07-23 08:54:00,64.3,59.7,29.87,NNE,12,0.0,0.0,85,0.00,,---,0.01,VWS V14.01,2013-07-23 15:54:00,
2013-07-23 08:59:00,65.2,58.5,29.87,North,10,0.0,0.0,79,0.00,,---,0.01,VWS V14.01,2013-07-23 15:59:00,
2013-07-23 09:04:00,65.3,56.0,29.87,NW,311,2.0,2.0,72,0.00,,---,0.01,VWS V14.01,2013-07-23 16:04:00,
2013-07-23 09:09:00,65.4,56.2,29.87,NW,315,1.0,1.0,72,0.00,,---,0.01,VWS V14.01,2013-07-23 16:09:00,
2013-07-23 09:14:00,65.8,56.9,29.87,NNW,335,0.0,0.0,73,0.00,,---,0.01,VWS V14.01,2013-07-23 16:14:00,
2013-07-23 09:19:00,66.4,56.7,29.87,WNW,293,0.0,0.0,71,0.00,,---,0.01,VWS V14.01,2013-07-23 16:19:00,
2013-07-23 09:24:00,66.9,57.2,29.86,WNW,302,0.0,0.0,71,0.00,,---,0.01,VWS V14.01,2013-07-23 16:24:00,
2013-07-23 09:29:00,67.3,56.4,29.87,NW,323,2.0,2.0,68,0.00,,---,0.01,VWS V14.01,2013-07-23 16:29:00,
2013-07-23 09:34:00,67.1,56.6,29.86,NNW,347,2.0,2.0,69,0.00,,---,0.01,VWS V14.01,2013-07-23 16:34:00,
2013-07-23 09:39:00,67.6,57.1,29.86,North,3,2.0,2.0,69,0.00,,---,0.01,VWS V14.01,2013-07-23 16:39:00,
2013-07-23 09:44:00,68.3,56.9,29.86,NW,321,1.0,1.0,67,0.00,,---,0.01,VWS V14.01,2013-07-23 16:44:00,
2013-07-23 09:50:00,68.5,56.7,29.87,NNW,330,2.0,2.0,66,0.00,,---,0.01,VWS V14.01,2013-07-23 16:50:00,
2013-07-23 09:55:00,68.8,55.7,29.87,NNW,331,3.0,3.0,63,0.00,,---,0.01,VWS V14.01,2013-07-23 16:55:00,
2013-07-23 10:00:00,69.0,55.9,29.87,NNE,33,0.0,0.0,63,0.00,,---,0.01,VWS V14.01,2013-07-23 17:00:00,
2013-07-23 10:05:00,69.4,55.8,29.87,NNE,26,1.0,2.0,62,0.00,,---,0.01,VWS V14.01,2013-07-23 17:05:00,
2013-07-23 10:10:00,69.8,56.7,29.87,NNE,25,0.0,0.0,63,0.00,,---,0.01,VWS V14.01,2013-07-23 17:10:00,
2013-07-23 10:15:00,70.2,56.1,29.87,East,86,0.0,0.0,61,0.00,,---,0.01,VWS V14.01,2013-07-23 17:15:00,
2013-07-23 10:20:00,70.4,56.3,29.87,NNW,328,3.0,3.0,61,0.00,,---,0.01,VWS V14.01,2013-07-23 17:20:00,
2013-07-23 10:25:00,71.0,56.4,29.87,East,84,1.0,1.0,60,0.00,,---,0.01,VWS V14.01,2013-07-23 17:25:00,
2013-07-23 10:30:00,71.3,56.2,29.87,East,98,1.0,1.0,59,0.00,,---,0.01,VWS V14.01,2013-07-23 17:30:00,
2013-07-23 10:35:00,71.6,57.0,29.87,NNW,327,2.0,2.0,60,0.00,,---,0.01,VWS V14.01,2013-07-23 17:35:00,
2013-07-23 10:40:00,71.1,56.1,29.87,North,6,2.0,2.0,59,0.00,,---,0.01,VWS V14.01,2013-07-23 17:40:00,
2013-07-23 10:45:00,70.3,55.3,29.87,North,360,2.0,2.0,59,0.00,,---,0.01,VWS V14.01,2013-07-23 17:45:00,
2013-07-23 10:52:00,70.0,56.0,29.87,North,1,1.0,1.0,61,0.00,,---,0.01,VWS V14.01,2013-07-23 17:52:00,
2013-07-23 10:57:00,69.7,56.6,29.87,North,6,0.0,0.0,63,0.00,,---,0.01,VWS V14.01,2013-07-23 17:57:00,
2013-07-23 11:02:00,69.8,57.1,29.87,NW,315,3.0,3.0,64,0.00,,---,0.01,VWS V14.01,2013-07-23 18:02:00,
2013-07-23 11:07:00,70.9,55.9,29.87,West,273,1.0,1.0,59,0.00,,---,0.01,VWS V14.01,2013-07-23 18:07:00,
2013-07-23 11:12:00,71.4,56.3,29.87,NE,41,1.0,2.0,59,0.00,,---,0.01,VWS V14.01,2013-07-23 18:12:00,
2013-07-23 11:17:00,71.5,56.4,29.87,NW,311,3.0,3.0,59,0.00,,---,0.01,VWS V14.01,2013-07-23 18:17:00,
2013-07-23 11:22:00,70.8,55.3,29.87,NE,36,0.0,0.0,58,0.00,,---,0.01,VWS V14.01,2013-07-23 18:22:00,
2013-07-23 11:27:00,70.7,56.2,29.87,ENE,75,0.0,0.0,60,0.00,,---,0.01,VWS V14.01,2013-07-23 18:27:00,
2013-07-23 11:33:00,70.7,55.2,29.87,WNW,285,1.0,1.0,58,0.00,,---,0.01,VWS V14.01,2013-07-23 18:33:00,
2013-07-23 11:40:00,70.4,54.5,29.87,WNW,285,1.0,1.0,57,0.00,,---,0.01,VWS V14.01,2013-07-23 18:40:00,
2013-07-23 11:45:00,70.1,55.6,29.87,NW,315,2.0,2.0,60,0.00,,---,0.01,VWS V14.01,2013-07-23 18:45:00,
2013-07-23 11:50:00,69.7,54.8,29.87,NNW,347,2.0,2.0,59,0.00,,---,0.01,VWS V14.01,2013-07-23 18:50:00,
2013-07-23 11:55:00,69.6,55.1,29.87,North,353,0.0,0.0,60,0.00,,---,0.01,VWS V14.01,2013-07-23 18:55:00,
2013-07-23 12:02:00,69.7,55.7,29.87,NNE,26,2.0,2.0,61,0.00,,---,0.01,VWS V14.01,2013-07-23 19:02:00,
2013-07-23 12:07:00,69.7,55.7,29.87,North,359,2.0,2.0,61,0.00,,---,0.01,VWS V14.01,2013-07-23 19:07:00,
2013-07-23 12:13:00,69.9,56.3,29.86,NNE,20,1.0,1.0,62,0.00,,---,0.01,VWS V14.01,2013-07-23 19:13:00,
2013-07-23 12:18:00,69.7,55.7,29.86,NE,34,0.0,0.0,61,0.00,,---,0.01,VWS V14.01,2013-07-23 19:18:00,
2013-07-23 12:23:00,69.6,56.0,29.86,NNE,25,2.0,4.0,62,0.00,,---,0.01,VWS V14.01,2013-07-23 19:23:00,
2013-07-23 12:28:00,69.4,55.8,29.86,NNE,25,0.0,2.0,62,0.00,,---,0.01,VWS V14.01,2013-07-23 19:28:00,
2013-07-23 12:34:00,69.4,55.8,29.86,NNE,15,0.0,0.0,62,0.00,,---,0.01,VWS V14.01,2013-07-23 19:34:00,
2013-07-23 12:39:00,69.3,56.2,29.86,NE,35,2.0,2.0,63,0.00,,---,0.01,VWS V14.01,2013-07-23 19:39:00,
2013-07-23 12:44:00,69.1,56.0,29.86,NNW,342,1.0,1.0,63,0.00,,---,0.01,VWS V14.01,2013-07-23 19:44:00,
2013-07-23 12:49:00,68.7,55.2,29.86,NE,43,1.0,2.0,62,0.00,,---,0.01,VWS V14.01,2013-07-23 19:49:00,
2013-07-23 12:54:00,68.4,55.3,29.86,NE,50,0.0,0.0,63,0.00,,---,0.01,VWS V14.01,2013-07-23 19:54:00,
2013-07-23 12:59:00,68.3,55.7,29.86,NE,34,0.0,0.0,64,0.00,,---,0.01,VWS V14.01,2013-07-23 19:59:00,
2013-07-23 13:05:00,68.3,55.7,29.85,NNE,26,1.0,2.0,64,0.00,,---,0.01,VWS V14.01,2013-07-23 20:05:00,
2013-07-23 13:12:00,68.4,55.3,29.86,East,82,1.0,2.0,63,0.00,,---,0.01,VWS V14.01,2013-07-23 20:12:00,
2013-07-23 13:17:00,68.3,55.7,29.85,North,352,0.0,1.0,64,0.00,,---,0.01,VWS V14.01,2013-07-23 20:17:00,
2013-07-23 13:25:00,68.2,55.6,29.86,NE,34,1.0,3.0,64,0.00,,---,0.01,VWS V14.01,2013-07-23 20:25:00,
2013-07-23 13:30:00,67.9,55.7,29.85,ESE,115,0.0,0.0,65,0.00,,---,0.01,VWS V14.01,2013-07-23 20:30:00,
2013-07-23 13:35:00,68.0,55.8,29.85,NNE,20,0.0,1.0,65,0.00,,---,0.01,VWS V14.01,2013-07-23 20:35:00,
2013-07-23 13:40:00,68.0,55.8,29.85,NE,38,1.0,1.0,65,0.00,,---,0.01,VWS V14.01,2013-07-23 20:40:00,
2013-07-23 13:45:00,68.2,56.0,29.85,NE,55,0.0,0.0,65,0.00,,---,0.01,VWS V14.01,2013-07-23 20:45:00,
2013-07-23 13:51:00,68.3,55.7,29.85,NE,55,0.0,0.0,64,0.00,,---,0.01,VWS V14.01,2013-07-23 20:51:00,
2013-07-23 13:56:00,68.5,55.9,29.85,ESE,116,0.0,1.0,64,0.00,,---,0.01,VWS V14.01,2013-07-23 20:56:00,
2013-07-23 14:01:00,68.5,55.9,29.85,ESE,115,0.0,0.0,64,0.00,,---,0.01,VWS V14.01,2013-07-23 21:01:00,
2013-07-23 14:06:00,68.6,56.0,29.85,ESE,115,0.0,0.0,64,0.00,,---,0.01,VWS V14.01,2013-07-23 21:06:00,
2013-07-23 14:11:00,68.7,55.6,29.84,ESE,110,0.0,0.0,63,0.00,,---,0.01,VWS V14.01,2013-07-23 21:11:00,
2013-07-23 14:16:00,68.7,55.6,29.84,NNE,31,0.0,0.0,63,0.00,,---,0.01,VWS V14.01,2013-07-23 21:16:00,
2013-07-23 14:21:00,68.9,56.7,29.84,NNE,32,0.0,0.0,65,0.00,,---,0.01,VWS V14.01,2013-07-23 21:21:00,
2013-07-23 14:26:00,69.4,55.8,29.84,SW,222,0.0,0.0,62,0.00,,---,0.01,VWS V14.01,2013-07-23 21:26:00,
2013-07-23 14:32:00,70.0,56.4,29.84,South,172,0.0,0.0,62,0.00,,---,0.01,VWS V14.01,2013-07-23 21:32:00,
2013-07-23 14:37:00,70.2,56.6,29.84,South,172,0.0,0.0,62,0.00,,---,0.01,VWS V14.01,2013-07-23 21:37:00,
2013-07-23 14:42:00,70.4,56.8,29.84,SSW,205,0.0,0.0,62,0.00,,---,0.01,VWS V14.01,2013-07-23 21:42:00,
2013-07-23 14:47:00,70.7,56.6,29.83,SSW,204,0.0,0.0,61,0.00,,---,0.01,VWS V14.01,2013-07-23 21:47:00,
2013-07-23 14:53:00,70.9,56.3,29.84,SSW,204,1.0,1.0,60,0.00,,---,0.01,VWS V14.01,2013-07-23 21:53:00,
2013-07-23 14:58:00,71.2,56.2,29.83,East,80,0.0,1.0,59,0.00,,---,0.01,VWS V14.01,2013-07-23 21:58:00,
2013-07-23 15:03:00,71.2,55.7,29.83,East,80,0.0,0.0,58,0.00,,---,0.01,VWS V14.01,2013-07-23 22:03:00,
2013-07-23 15:09:00,71.2,55.2,29.83,ESE,108,0.0,1.0,57,0.00,,---,0.01,VWS V14.01,2013-07-23 22:09:00,
2013-07-23 15:15:00,71.1,55.6,29.83,ESE,108,0.0,0.0,58,0.00,,---,0.01,VWS V14.01,2013-07-23 22:15:00,
2013-07-23 15:20:00,71.0,55.0,29.83,NNE,25,0.0,0.0,57,0.00,,---,0.01,VWS V14.01,2013-07-23 22:20:00,
2013-07-23 15:25:00,70.7,54.7,29.83,NW,310,1.0,1.0,57,0.00,,---,0.01,VWS V14.01,2013-07-23 22:25:00,
2013-07-23 15:30:00,70.5,55.5,29.82,NNW,335,1.0,1.0,59,0.00,,---,0.01,VWS V14.01,2013-07-23 22:30:00,
2013-07-23 15:35:00,70.4,55.4,29.82,NNW,333,0.0,0.0,59,0.00,,---,0.01,VWS V14.01,2013-07-23 22:35:00,
2013-07-23 15:40:00,70.5,56.9,29.82,NNW,333,0.0,0.0,62,0.00,,---,0.01,VWS V14.01,2013-07-23 22:40:00,
2013-07-23 15:45:00,70.6,56.5,29.82,SW,218,0.0,0.0,61,0.00,,---,0.01,VWS V14.01,2013-07-23 22:45:00,
2013-07-23 15:51:00,70.6,56.5,29.82,West,270,1.0,2.0,61,0.00,,---,0.01,VWS V14.01,2013-07-23 22:51:00,
2013-07-23 15:56:00,70.3,56.2,29.82,West,264,1.0,1.0,61,0.00,,---,0.01,VWS V14.01,2013-07-23 22:56:00,
2013-07-23 16:01:00,70.0,56.4,29.82,WNW,300,1.0,1.0,62,0.00,,---,0.01,VWS V14.01,2013-07-23 23:01:00,
2013-07-23 16:06:00,70.1,56.5,29.81,WNW,293,1.0,2.0,62,0.00,,---,0.01,VWS V14.01,2013-07-23 23:06:00,
2013-07-23 16:12:00,70.2,56.1,29.81,NW,319,0.0,1.0,61,0.00,,---,0.01,VWS V14.01,2013-07-23 23:12:00,
2013-07-23 16:17:00,70.3,57.1,29.81,NW,316,0.0,0.0,63,0.00,,---,0.01,VWS V14.01,2013-07-23 23:17:00,
2013-07-23 16:22:00,70.2,57.5,29.81,North,1,0.0,0.0,64,0.00,,---,0.01,VWS V14.01,2013-07-23 23:22:00,
2013-07-23 16:28:00,70.0,57.7,29.81,NW,310,0.0,0.0,65,0.00,,---,0.01,VWS V14.01,2013-07-23 23:28:00,
2013-07-23 16:33:00,69.8,57.1,29.80,NNW,331,0.0,1.0,64,0.00,,---,0.01,VWS V14.01,2013-07-23 23:33:00,
2013-07-23 16:38:00,69.6,57.3,29.81,NW,318,0.0,0.0,65,0.00,,---,0.01,VWS V14.01,2013-07-23 23:38:00,
2013-07-23 16:44:00,69.8,57.5,29.80,NW,310,0.0,0.0,65,0.00,,---,0.01,VWS V14.01,2013-07-23 23:44:00,
2013-07-23 16:49:00,70.7,57.5,29.80,SSW,195,0.0,0.0,63,0.00,,---,0.01,VWS V14.01,2013-07-23 23:49:00,
2013-07-23 16:56:00,72.6,56.0,29.80,ENE,72,1.0,1.0,56,0.00,,---,0.01,VWS V14.01,2013-07-23 23:56:00,
2013-07-23 17:03:00,73.7,55.5,29.79,SSE,160,0.0,1.0,53,0.00,,---,0.01,VWS V14.01,2013-07-24 00:03:00,
2013-07-23 17:08:00,74.2,54.9,29.79,NW,314,0.0,0.0,51,0.00,,---,0.01,VWS V14.01,2013-07-24 00:08:00,
2013-07-23 17:14:00,74.8,54.9,29.79,SW,218,0.0,0.0,50,0.00,,---,0.01,VWS V14.01,2013-07-24 00:14:00,
2013-07-23 17:19:00,74.9,55.0,29.79,SW,224,2.0,2.0,50,0.00,,---,0.01,VWS V14.01,2013-07-24 00:19:00,
2013-07-23 17:24:00,74.6,54.8,29.78,SW,222,0.0,0.0,50,0.00,,---,0.01,VWS V14.01,2013-07-24 00:24:00,
2013-07-23 17:29:00,74.4,55.7,29.78,SW,223,0.0,0.0,52,0.00,,---,0.01,VWS V14.01,2013-07-24 00:29:00,
2013-07-23 17:34:00,74.2,54.9,29.78,WSW,252,1.0,1.0,51,0.00,,---,0.01,VWS V14.01,2013-07-24 00:34:00,
2013-07-23 17:41:00,73.3,55.7,29.78,North,352,2.0,3.0,54,0.00,,---,0.01,VWS V14.01,2013-07-24 00:41:00,
2013-07-23 17:46:00,72.8,55.7,29.78,NW,309,3.0,3.0,55,0.00,,---,0.01,VWS V14.01,2013-07-24 00:46:00,
2013-07-23 17:51:00,72.9,56.3,29.78,WNW,293,2.0,2.0,56,0.00,,---,0.01,VWS V14.01,2013-07-24 00:51:00,
2013-07-23 17:56:00,73.3,56.2,29.77,NNW,330,0.0,1.0,55,0.00,,---,0.01,VWS V14.01,2013-07-24 00:56:00,
2013-07-23 18:01:00,73.5,56.9,29.77,NNE,25,2.0,2.0,56,0.00,,---,0.01,VWS V14.01,2013-07-24 01:01:00,
2013-07-23 18:10:00,72.4,55.8,29.77,WNW,296,0.0,0.0,56,0.00,,---,0.01,VWS V14.01,2013-07-24 01:10:00,
2013-07-23 18:15:00,71.3,56.7,29.77,WNW,302,0.0,0.0,60,0.00,,---,0.01,VWS V14.01,2013-07-24 01:15:00,
2013-07-23 18:20:00,70.4,56.3,29.78,NW,306,0.0,0.0,61,0.00,,---,0.01,VWS V14.01,2013-07-24 01:20:00,
2013-07-23 18:25:00,69.8,56.2,29.77,NW,321,2.0,2.0,62,0.00,,---,0.01,VWS V14.01,2013-07-24 01:25:00,
2013-07-23 18:30:00,69.2,56.1,29.77,WNW,285,0.0,0.0,63,0.00,,---,0.01,VWS V14.01,2013-07-24 01:30:00,
2013-07-23 18:36:00,68.8,56.1,29.77,WNW,285,0.0,0.0,64,0.00,,---,0.01,VWS V14.01,2013-07-24 01:36:00,
2013-07-23 18:41:00,68.5,55.4,29.77,WNW,301,0.0,0.0,63,0.00,,---,0.01,VWS V14.01,2013-07-24 01:41:00,
2013-07-23 18:47:00,68.1,55.5,29.78,NW,304,0.0,1.0,64,0.00,,---,0.01,VWS V14.01,2013-07-24 01:47:00,
2013-07-23 18:52:00,67.8,55.6,29.78,NW,305,0.0,0.0,65,0.00,,---,0.01,VWS V14.01,2013-07-24 01:52:00,
2013-07-23 18:57:00,67.7,56.4,29.78,NW,305,0.0,0.0,67,0.00,,---,0.01,VWS V14.01,2013-07-24 01:57:00,
2013-07-23 19:02:00,67.6,55.4,29.78,NW,310,1.0,1.0,65,0.00,,---,0.01,VWS V14.01,2013-07-24 02:02:00,
2013-07-23 19:07:00,67.6,55.4,29.78,WNW,302,0.0,0.0,65,0.00,,---,0.01,VWS V14.01,2013-07-24 02:07:00,
2013-07-23 19:12:00,67.6,55.0,29.78,WNW,302,0.0,0.0,64,0.00,,---,0.01,VWS V14.01,2013-07-24 02:12:00,
2013-07-23 19:17:00,67.7,54.7,29.78,WNW,302,0.0,0.0,63,0.00,,---,0.01,VWS V14.01,2013-07-24 02:17:00,
2013-07-23 19:22:00,67.8,55.2,29.78,WNW,302,0.0,0.0,64,0.00,,---,0.01,VWS V14.01,2013-07-24 02:22:00,
2013-07-23 19:27:00,67.6,55.4,29.78,WNW,302,0.0,0.0,65,0.00,,---,0.01,VWS V14.01,2013-07-24 02:27:00,
2013-07-23 19:33:00,67.3,55.6,29.78,WNW,302,0.0,0.0,66,0.00,,---,0.01,VWS V14.01,2013-07-24 02:33:00,
2013-07-23 19:38:00,66.7,55.4,29.78,WNW,302,0.0,0.0,67,0.00,,---,0.01,VWS V14.01,2013-07-24 02:38:00,
2013-07-23 19:43:00,66.2,56.1,29.78,WNW,302,0.0,0.0,70,0.00,,---,0.01,VWS V14.01,2013-07-24 02:43:00,
2013-07-23 19:48:00,65.6,54.8,29.78,WNW,302,0.0,0.0,68,0.00,,---,0.01,VWS V14.01,2013-07-24 02:48:00,
2013-07-23 19:53:00,65.0,54.6,29.78,WNW,302,0.0,0.0,69,0.00,,---,0.01,VWS V14.01,2013-07-24 02:53:00,
2013-07-23 19:58:00,64.6,55.0,29.79,WNW,302,0.0,0.0,71,0.00,,---,0.01,VWS V14.01,2013-07-24 02:58:00,
2013-07-23 20:03:00,64.1,55.3,29.79,WNW,302,0.0,0.0,73,0.00,,---,0.01,VWS V14.01,2013-07-24 03:03:00,
2013-07-23 20:08:00,63.6,55.5,29.79,WNW,302,0.0,0.0,75,0.00,,---,0.01,VWS V14.01,2013-07-24 03:08:00,
2013-07-23 20:13:00,63.1,54.7,29.79,WNW,302,0.0,0.0,74,0.00,,---,0.01,VWS V14.01,2013-07-24 03:13:00,
2013-07-23 20:19:00,62.7,55.0,29.80,WNW,302,0.0,0.0,76,0.00,,---,0.01,VWS V14.01,2013-07-24 03:19:00,
2013-07-23 20:24:00,62.1,54.8,29.80,WNW,302,0.0,0.0,77,0.00,,---,0.01,VWS V14.01,2013-07-24 03:24:00,
2013-07-23 20:30:00,61.6,55.0,29.80,WNW,302,0.0,0.0,79,0.00,,---,0.01,VWS V14.01,2013-07-24 03:30:00,
2013-07-23 20:36:00,61.1,54.9,29.80,WNW,302,0.0,0.0,80,0.00,,---,0.01,VWS V14.01,2013-07-24 03:36:00,
2013-07-23 20:41:00,60.7,54.5,29.81,WNW,302,0.0,0.0,80,0.00,,---,0.01,VWS V14.01,2013-07-24 03:41:00,
2013-07-23 20:47:00,60.2,54.4,29.81,WNW,302,0.0,0.0,81,0.00,,---,0.01,VWS V14.01,2013-07-24 03:47:00,
2013-07-23 20:52:00,60.0,54.5,29.81,WNW,302,0.0,0.0,82,0.00,,---,0.01,VWS V14.01,2013-07-24 03:52:00,
2013-07-23 20:57:00,59.7,54.2,29.82,WNW,302,0.0,0.0,82,0.00,,---,0.01,VWS V14.01,2013-07-24 03:57:00,
2013-07-23 21:01:00,59.5,54.3,29.82,WNW,302,0.0,0.0,83,0.00,,---,0.01,VWS V14.01,2013-07-24 04:01:00,
2013-07-23 21:02:00,59.5,54.3,29.82,WNW,302,0.0,0.0,83,0.00,,---,0.01,VWS V14.01,2013-07-24 04:02:00,
2013-07-23 21:06:00,59.3,54.2,29.82,WNW,302,0.0,0.0,83,0.00,,---,0.01,VWS V14.01,2013-07-24 04:06:00,
2013-07-23 21:07:00,59.2,54.0,29.82,WNW,302,0.0,0.0,83,0.00,,---,0.01,VWS V14.01,2013-07-24 04:07:00,
2013-07-23 21:08:00,59.2,54.0,29.82,WNW,302,0.0,0.0,83,0.00,,---,0.01,VWS V14.01,2013-07-24 04:08:00,
2013-07-23 21:13:00,59.0,53.8,29.82,WNW,302,0.0,0.0,83,0.00,,---,0.01,VWS V14.01,2013-07-24 04:13:00,
2013-07-23 21:18:00,58.8,54.0,29.82,WNW,302,0.0,0.0,84,0.00,,---,0.01,VWS V14.01,2013-07-24 04:18:00,
2013-07-23 21:23:00,58.6,53.8,29.83,WNW,302,0.0,0.0,84,0.00,,---,0.01,VWS V14.01,2013-07-24 04:23:00,
2013-07-23 21:28:00,58.3,53.8,29.83,WNW,302,0.0,0.0,85,0.00,,---,0.01,VWS V14.01,2013-07-24 04:28:00,
2013-07-23 21:33:00,58.0,53.5,29.83,WNW,302,0.0,0.0,85,0.00,,---,0.01,VWS V14.01,2013-07-24 04:33:00,
2013-07-23 21:38:00,57.7,53.2,29.83,WNW,302,0.0,0.0,85,0.00,,---,0.01,VWS V14.01,2013-07-24 04:38:00,
2013-07-23 21:43:00,57.5,53.0,29.83,WNW,302,0.0,0.0,85,0.00,,---,0.01,VWS V14.01,2013-07-24 04:43:00,
2013-07-23 21:49:00,57.4,53.2,29.83,WNW,302,0.0,0.0,86,0.00,,---,0.01,VWS V14.01,2013-07-24 04:49:00,
2013-07-23 21:54:00,57.4,53.2,29.83,WNW,302,0.0,0.0,86,0.00,,---,0.01,VWS V14.01,2013-07-24 04:54:00,
2013-07-23 21:59:00,57.6,53.5,29.83,WNW,302,0.0,0.0,86,0.00,,---,0.01,VWS V14.01,2013-07-24 04:59:00,
2013-07-23 22:04:00,58.0,53.5,29.84,WNW,302,0.0,0.0,85,0.00,,---,0.01,VWS V14.01,2013-07-24 05:04:00,
2013-07-23 22:09:00,58.3,53.5,29.83,WNW,302,0.0,0.0,84,0.00,,---,0.01,VWS V14.01,2013-07-24 05:09:00,
2013-07-23 22:14:00,58.4,53.6,29.83,WNW,302,0.0,0.0,84,0.00,,---,0.01,VWS V14.01,2013-07-24 05:14:00,
2013-07-23 22:19:00,58.4,53.6,29.84,WNW,302,0.0,0.0,84,0.00,,---,0.01,VWS V14.01,2013-07-24 05:19:00,
2013-07-23 22:24:00,58.1,53.3,29.84,WNW,302,0.0,0.0,84,0.00,,---,0.01,VWS V14.01,2013-07-24 05:24:00,
2013-07-23 22:29:00,57.7,53.2,29.84,WNW,302,0.0,0.0,85,0.00,,---,0.01,VWS V14.01,2013-07-24 05:29:00,
2013-07-23 22:34:00,57.4,52.9,29.83,WNW,302,0.0,0.0,85,0.00,,---,0.01,VWS V14.01,2013-07-24 05:34:00,
2013-07-23 22:39:00,57.2,53.1,29.84,WNW,302,0.0,0.0,86,0.00,,---,0.01,VWS V14.01,2013-07-24 05:39:00,
2013-07-23 22:44:00,57.0,53.2,29.84,WNW,302,0.0,0.0,87,0.00,,---,0.01,VWS V14.01,2013-07-24 05:44:00,
2013-07-23 22:49:00,56.8,53.0,29.84,WNW,302,0.0,0.0,87,0.00,,---,0.01,VWS V14.01,2013-07-24 05:49:00,
2013-07-23 22:54:00,56.6,52.8,29.83,WNW,302,0.0,0.0,87,0.00,,---,0.01,VWS V14.01,2013-07-24 05:54:00,
2013-07-23 22:59:00,56.4,52.6,29.84,WNW,302,0.0,0.0,87,0.00,,---,0.01,VWS V14.01,2013-07-24 05:59:00,
2013-07-23 23:04:00,56.3,52.5,29.83,WNW,302,0.0,0.0,87,0.00,,---,0.01,VWS V14.01,2013-07-24 06:04:00,
2013-07-23 23:09:00,56.2,52.7,29.84,WNW,302,0.0,0.0,88,0.00,,---,0.01,VWS V14.01,2013-07-24 06:09:00,
2013-07-23 23:14:00,56.1,52.6,29.84,WNW,302,0.0,0.0,88,0.00,,---,0.01,VWS V14.01,2013-07-24 06:14:00,
2013-07-23 23:19:00,55.9,52.4,29.84,WNW,302,0.0,0.0,88,0.00,,---,0.01,VWS V14.01,2013-07-24 06:19:00,
2013-07-23 23:24:00,55.7,52.5,29.84,WNW,302,0.0,0.0,89,0.00,,---,0.01,VWS V14.01,2013-07-24 06:24:00,
2013-07-23 23:29:00,55.5,52.3,29.84,WNW,302,0.0,0.0,89,0.00,,---,0.01,VWS V14.01,2013-07-24 06:29:00,
2013-07-23 23:34:00,55.3,52.1,29.84,WNW,302,0.0,0.0,89,0.00,,---,0.01,VWS V14.01,2013-07-24 06:34:00,
2013-07-23 23:39:00,55.3,52.4,29.84,WNW,302,0.0,0.0,90,0.00,,---,0.01,VWS V14.01,2013-07-24 06:39:00,
2013-07-23 23:44:00,55.2,52.0,29.84,WNW,302,0.0,0.0,89,0.00,,---,0.01,VWS V14.01,2013-07-24 06:44:00,
2013-07-23 23:49:00,55.0,51.8,29.84,WNW,302,0.0,0.0,89,0.00,,---,0.01,VWS V14.01,2013-07-24 06:49:00,
2013-07-23 23:54:00,54.7,51.5,29.84,WNW,302,0.0,0.0,89,0.00,,---,0.01,VWS V14.01,2013-07-24 06:54:00,
2013-07-23 23:59:00,54.5,51.3,29.84,WNW,302,0.0,0.0,89,0.00,,---,0.01,VWS V14.01,2013-07-24 06:59:00,